createdAt,value
2019-06-08T00:02:14.600Z,43.55
2019-06-08T00:04:48.659Z,38.05
2019-06-08T00:07:23.084Z,49.50
2019-06-08T00:09:56.992Z,50.25
2019-06-08T00:12:30.872Z,48.52
2019-06-08T00:15:06.579Z,48.90
2019-06-08T00:17:40.412Z,47.20
2019-06-08T00:20:15.425Z,44.63
2019-06-08T00:22:49.142Z,50.10
2019-06-08T00:25:24.119Z,47.38
2019-06-08T00:27:57.942Z,41.08
2019-06-08T00:30:32.891Z,45.50
2019-06-08T00:33:06.827Z,41.55
2019-06-08T00:35:40.553Z,46.65
2019-06-08T00:38:14.859Z,51.48
2019-06-08T00:40:48.654Z,57.45
2019-06-08T00:43:23.669Z,57.03
2019-06-08T00:45:57.705Z,61.58
2019-06-08T00:48:31.407Z,47.70
2019-06-08T00:51:05.254Z,51.65
2019-06-08T00:53:39.070Z,49.08
2019-06-08T00:56:12.912Z,51.65
2019-06-08T00:58:46.930Z,54.38
2019-06-08T01:01:22.768Z,46.98
2019-06-08T01:03:58.810Z,45.63
2019-06-08T01:06:33.648Z,50.48
2019-06-08T01:09:08.567Z,44.55
2019-06-08T01:11:42.499Z,48.60
2019-06-08T01:14:16.357Z,46.35
2019-06-08T01:16:50.182Z,53.20
2019-06-08T01:19:25.143Z,44.70
2019-06-08T01:21:59.845Z,44.80
2019-06-08T01:24:33.700Z,42.62
2019-06-08T01:27:07.573Z,47.43
2019-06-08T01:29:41.311Z,45.17
2019-06-08T01:32:15.022Z,45.25
2019-06-08T01:34:48.780Z,47.58
2019-06-08T01:37:23.014Z,49.18
2019-06-08T01:39:56.879Z,41.35
2019-06-08T01:42:31.853Z,50.52
2019-06-08T01:45:12.561Z,44.85
2019-06-08T01:47:46.441Z,49.08
2019-06-08T01:50:20.215Z,48.80
2019-06-08T01:52:54.049Z,49.58
2019-06-08T01:55:29.019Z,51.77
2019-06-08T01:58:04.112Z,48.20
2019-06-08T02:00:41.437Z,59.77
2019-06-08T02:03:13.269Z,56.00
2019-06-08T02:05:47.141Z,52.93
2019-06-08T02:08:20.899Z,52.80
2019-06-08T02:10:54.721Z,43.05
2019-06-08T02:13:28.892Z,44.98
2019-06-08T02:16:02.820Z,43.70
2019-06-08T02:18:48.976Z,52.65
2019-06-08T02:21:11.978Z,43.73
2019-06-08T02:23:46.421Z,49.23
2019-06-08T02:26:20.280Z,42.03
2019-06-08T02:28:54.049Z,39.27
2019-06-08T02:31:28.062Z,42.83
2019-06-08T02:34:02.365Z,43.73
2019-06-08T02:36:37.890Z,37.42
2019-06-08T02:39:11.822Z,37.95
2019-06-08T02:41:46.424Z,42.93
2019-06-08T02:44:20.248Z,42.30
2019-06-08T02:46:54.338Z,45.40
2019-06-08T02:49:29.101Z,42.98
2019-06-08T02:52:03.221Z,40.30
2019-06-08T02:54:39.826Z,40.05
2019-06-08T02:57:16.980Z,45.63
2019-06-08T02:59:55.449Z,40.03
2019-06-08T03:02:33.788Z,42.75
2019-06-08T03:05:10.021Z,48.30
2019-06-08T03:07:45.952Z,59.38
2019-06-08T03:10:20.133Z,62.10
2019-06-08T03:12:56.045Z,56.37
2019-06-08T03:15:34.016Z,58.30
2019-06-08T03:18:06.973Z,46.73
2019-06-08T03:20:42.417Z,47.70
2019-06-08T03:23:16.329Z,46.05
2019-06-08T03:25:53.140Z,50.40
2019-06-08T03:28:26.176Z,44.58
2019-06-08T03:31:00.196Z,41.02
2019-06-08T03:33:35.874Z,42.23
2019-06-08T03:36:09.402Z,38.63
2019-06-08T03:38:44.737Z,39.67
2019-06-08T03:41:18.681Z,42.50
2019-06-08T03:43:52.510Z,51.08
2019-06-08T03:46:26.340Z,65.60
2019-06-08T03:49:00.181Z,58.02
2019-06-08T03:51:37.332Z,53.58
2019-06-08T03:54:09.454Z,49.55
2019-06-08T03:56:44.185Z,58.25
2019-06-08T03:59:18.081Z,53.90
2019-06-08T04:01:51.857Z,51.08
2019-06-08T04:04:25.718Z,45.33
2019-06-08T04:06:59.558Z,42.95
2019-06-08T04:09:33.378Z,43.02
2019-06-08T04:12:07.295Z,39.92
2019-06-08T04:14:42.169Z,44.23
2019-06-08T04:17:16.506Z,39.20
2019-06-08T04:20:09.726Z,44.63
2019-06-08T04:22:26.326Z,45.58
2019-06-08T04:25:00.048Z,38.98
2019-06-08T04:27:34.401Z,35.43
2019-06-08T04:30:13.228Z,36.05
2019-06-08T04:32:49.277Z,34.33
2019-06-08T04:35:22.622Z,34.58
2019-06-08T04:37:56.560Z,40.05
2019-06-08T04:40:30.393Z,38.42
2019-06-08T04:43:05.461Z,38.98
2019-06-08T04:45:41.149Z,31.15
2019-06-08T04:48:15.233Z,38.53
2019-06-08T04:50:49.786Z,41.05
2019-06-08T04:53:23.682Z,47.17
2019-06-08T04:55:57.519Z,44.48
2019-06-08T04:58:32.114Z,37.80
2019-06-08T05:01:06.061Z,42.83
2019-06-08T05:03:41.374Z,44.50
2019-06-08T05:06:15.312Z,46.25
2019-06-08T05:08:49.826Z,47.43
2019-06-08T05:11:23.809Z,46.42
2019-06-08T05:13:57.664Z,40.05
2019-06-08T05:16:31.500Z,36.60
2019-06-08T05:19:05.453Z,30.37
2019-06-08T05:21:39.585Z,32.35
2019-06-08T05:24:13.423Z,30.75
2019-06-08T05:26:49.562Z,34.70
2019-06-08T05:29:23.509Z,31.37
2019-06-08T05:31:57.349Z,29.45
2019-06-08T05:34:31.093Z,29.72
2019-06-08T05:37:04.952Z,26.70
2019-06-08T05:39:39.535Z,27.85
2019-06-08T05:42:13.532Z,25.27
2019-06-08T05:44:47.857Z,26.12
2019-06-08T05:47:23.862Z,26.12
2019-06-08T05:49:58.185Z,26.95
2019-06-08T05:52:32.342Z,23.90
2019-06-08T05:55:12.451Z,23.90
2019-06-08T05:57:50.525Z,23.90
2019-06-08T06:00:25.632Z,25.23
2019-06-08T06:03:15.943Z,28.92
2019-06-08T06:05:42.467Z,23.67
2019-06-08T06:08:19.097Z,23.52
2019-06-08T06:10:51.787Z,27.02
2019-06-08T06:13:25.622Z,28.30
2019-06-08T06:16:19.967Z,25.55
2019-06-08T06:18:52.233Z,27.30
2019-06-08T06:21:26.021Z,27.25
2019-06-08T06:24:00.017Z,24.70
2019-06-08T06:26:33.693Z,26.25
2019-06-08T06:29:07.571Z,27.67
2019-06-08T06:31:41.657Z,26.55
2019-06-08T06:34:21.093Z,27.93
2019-06-08T06:36:57.476Z,22.25
2019-06-08T06:39:31.540Z,23.83
2019-06-08T06:42:06.526Z,19.75
2019-06-08T06:44:47.490Z,19.75
2019-06-08T06:47:23.554Z,21.45
2019-06-08T06:49:58.164Z,19.75
2019-06-08T06:52:31.923Z,19.85
2019-06-08T06:55:08.867Z,21.50
2019-06-08T06:57:43.522Z,20.05
2019-06-08T07:00:30.698Z,21.07
2019-06-08T07:03:04.761Z,20.30
2019-06-08T07:05:55.671Z,19.73
2019-06-08T07:08:29.402Z,22.02
2019-06-08T07:11:03.273Z,20.95
2019-06-08T07:13:37.954Z,19.85
2019-06-08T07:16:18.605Z,19.92
2019-06-08T07:18:48.196Z,17.75
2019-06-08T07:21:22.078Z,18.37
2019-06-08T07:23:56.308Z,19.20
2019-06-08T07:26:30.128Z,20.27
2019-06-08T07:29:04.095Z,18.27
2019-06-08T07:31:37.896Z,18.00
2019-06-08T07:34:11.731Z,19.02
2019-06-08T07:36:45.452Z,17.80
2019-06-08T07:39:19.330Z,21.02
2019-06-08T07:41:55.865Z,22.82
2019-06-08T07:44:29.742Z,19.62
2019-06-08T07:47:04.177Z,22.50
2019-06-08T07:49:38.024Z,19.05
2019-06-08T07:52:12.496Z,24.45
2019-06-08T07:54:46.383Z,20.20
2019-06-08T07:57:20.172Z,18.65
2019-06-08T07:59:54.694Z,18.70
2019-06-08T08:02:29.997Z,17.35
2019-06-08T08:05:08.377Z,15.35
2019-06-08T08:07:42.225Z,16.60
2019-06-08T08:10:17.010Z,18.20
2019-06-08T08:12:50.928Z,19.27
2019-06-08T08:15:24.787Z,18.07
2019-06-08T08:17:59.619Z,14.95
2019-06-08T08:20:35.597Z,17.77
2019-06-08T08:23:09.549Z,18.32
2019-06-08T08:25:43.383Z,15.98
2019-06-08T08:28:17.709Z,18.92
2019-06-08T08:30:53.765Z,15.83
2019-06-08T08:33:27.750Z,18.55
2019-06-08T08:36:02.053Z,15.55
2019-06-08T08:38:38.052Z,20.45
2019-06-08T08:41:11.368Z,16.02
2019-06-08T08:43:45.259Z,16.30
2019-06-08T08:46:19.160Z,14.45
2019-06-08T08:49:02.837Z,15.70
2019-06-08T08:51:30.824Z,16.10
2019-06-08T08:54:05.547Z,16.70
2019-06-08T08:56:52.192Z,16.87
2019-06-08T08:59:23.336Z,16.80
2019-06-08T09:01:59.833Z,15.98
2019-06-08T09:04:32.790Z,15.05
2019-06-08T09:07:10.154Z,17.52
2019-06-08T09:09:42.224Z,17.17
2019-06-08T09:12:18.332Z,16.10
2019-06-08T09:14:56.718Z,14.85
2019-06-08T09:17:30.874Z,21.02
2019-06-08T09:20:11.017Z,16.65
2019-06-08T09:22:52.375Z,14.75
2019-06-08T09:25:18.181Z,18.02
2019-06-08T09:27:54.140Z,17.50
2019-06-08T09:30:29.025Z,17.23
2019-06-08T09:33:04.185Z,16.70
2019-06-08T09:35:38.122Z,14.35
2019-06-08T09:38:11.937Z,13.10
2019-06-08T09:40:49.332Z,15.25
2019-06-08T09:43:23.143Z,15.55
2019-06-08T09:46:00.518Z,16.05
2019-06-08T09:48:38.186Z,14.38
2019-06-08T09:51:13.150Z,16.15
2019-06-08T09:53:47.645Z,31.37
2019-06-08T09:56:22.396Z,17.60
2019-06-08T09:59:01.310Z,13.35
2019-06-08T10:01:33.498Z,12.98
2019-06-08T10:04:09.185Z,17.45
2019-06-08T10:09:23.115Z,14.35
2019-06-08T10:11:59.595Z,15.05
2019-06-08T10:14:32.968Z,14.10
2019-06-08T10:17:10.903Z,133.80
2019-06-08T10:19:47.699Z,82.15
2019-06-08T10:22:21.614Z,66.45
2019-06-08T10:25:02.834Z,68.05
2019-06-08T10:27:35.625Z,18.23
2019-06-08T10:30:11.166Z,15.95
2019-06-08T10:32:44.996Z,17.90
2019-06-08T10:35:21.064Z,17.48
2019-06-08T10:38:00.386Z,16.30
2019-06-08T10:40:31.784Z,16.65
2019-06-08T10:43:07.327Z,17.35
2019-06-08T10:45:41.643Z,15.95
2019-06-08T10:48:17.771Z,26.80
2019-06-08T10:50:50.954Z,32.05
2019-06-08T10:53:24.841Z,43.08
2019-06-08T10:55:59.803Z,17.15
2019-06-08T10:58:33.996Z,44.10
2019-06-08T11:01:11.160Z,45.33
2019-06-08T11:03:43.812Z,15.85
2019-06-08T11:06:19.573Z,14.65
2019-06-08T11:08:53.511Z,21.35
2019-06-08T11:11:28.513Z,37.30
2019-06-08T11:14:03.819Z,13.53
2019-06-08T11:16:38.532Z,14.43
2019-06-08T11:19:17.813Z,12.20
2019-06-08T11:21:51.080Z,13.25
2019-06-08T11:24:25.455Z,14.70
2019-06-08T11:27:01.287Z,20.60
2019-06-08T11:29:38.144Z,15.43
2019-06-08T11:32:12.475Z,12.13
2019-06-08T11:34:48.658Z,83.70
2019-06-08T11:37:21.713Z,70.62
2019-06-08T11:39:57.626Z,15.10
2019-06-08T11:42:31.108Z,13.48
2019-06-08T11:45:11.047Z,14.95
2019-06-08T11:47:45.462Z,15.78
2019-06-08T11:50:41.574Z,14.43
2019-06-08T11:53:14.586Z,14.60
2019-06-08T11:55:51.087Z,27.05
2019-06-08T11:58:28.274Z,21.73
2019-06-08T12:01:07.020Z,15.23
2019-06-08T12:03:40.459Z,15.10
2019-06-08T12:06:14.590Z,14.47
2019-06-08T12:08:48.584Z,27.42
2019-06-08T12:11:23.207Z,15.08
2019-06-08T12:14:00.924Z,15.55
2019-06-08T12:16:37.750Z,14.75
2019-06-08T12:19:15.130Z,18.35
2019-06-08T12:21:49.639Z,13.85
2019-06-08T12:24:22.929Z,14.75
2019-06-08T12:27:07.534Z,13.18
2019-06-08T12:29:32.254Z,11.30
2019-06-08T12:32:08.840Z,14.83
2019-06-08T12:34:42.003Z,12.93
2019-06-08T12:37:21.330Z,12.68
2019-06-08T12:39:54.402Z,12.03
2019-06-08T12:42:28.417Z,14.55
2019-06-08T12:45:02.367Z,12.35
2019-06-08T12:47:38.117Z,12.58
2019-06-08T12:50:14.742Z,11.50
2019-06-08T12:52:48.559Z,11.40
2019-06-08T12:55:25.279Z,10.88
2019-06-08T12:57:58.228Z,11.57
2019-06-08T13:00:32.038Z,10.55
2019-06-08T13:03:08.194Z,12.80
2019-06-08T13:05:41.144Z,13.75
2019-06-08T13:08:15.274Z,11.85
2019-06-08T13:10:49.063Z,10.25
2019-06-08T13:13:28.059Z,10.40
2019-06-08T13:16:02.609Z,10.32
2019-06-08T13:18:40.307Z,9.75
2019-06-08T13:21:22.216Z,9.50
2019-06-08T13:23:48.140Z,9.33
2019-06-08T13:26:27.821Z,9.45
2019-06-08T13:28:58.311Z,12.93
2019-06-08T13:31:33.541Z,9.70
2019-06-08T13:34:11.059Z,11.57
2019-06-08T13:36:44.198Z,10.85
2019-06-08T13:39:20.118Z,10.43
2019-06-08T13:41:54.834Z,9.93
2019-06-08T13:44:28.639Z,9.80
2019-06-08T13:47:03.465Z,9.53
2019-06-08T13:49:38.124Z,10.45
2019-06-08T13:52:11.973Z,10.55
2019-06-08T13:54:47.984Z,10.30
2019-06-08T13:57:24.654Z,19.60
2019-06-08T13:59:57.832Z,18.17
2019-06-08T14:02:31.863Z,9.63
2019-06-08T14:05:10.081Z,12.55
2019-06-08T14:07:44.083Z,12.15
2019-06-08T14:10:25.768Z,11.30
2019-06-08T14:13:00.758Z,11.10
2019-06-08T14:15:34.548Z,10.93
2019-06-08T14:18:08.958Z,10.70
2019-06-08T14:20:44.571Z,11.12
2019-06-08T14:23:21.252Z,11.05
2019-06-08T14:25:56.872Z,11.10
2019-06-08T14:28:30.385Z,13.48
2019-06-08T14:31:04.398Z,11.97
2019-06-08T14:33:39.347Z,17.90
2019-06-08T14:36:13.065Z,14.18
2019-06-08T14:38:49.618Z,13.98
2019-06-08T14:41:33.150Z,13.65
2019-06-08T14:44:08.278Z,14.15
2019-06-08T14:46:42.193Z,15.85
2019-06-08T14:49:18.296Z,14.65
2019-06-08T14:51:52.395Z,15.13
2019-06-08T14:54:29.058Z,12.65
2019-06-08T14:57:01.632Z,13.28
2019-06-08T14:59:35.446Z,14.43
2019-06-08T15:02:09.663Z,13.83
2019-06-08T15:04:43.471Z,13.70
2019-06-08T15:07:20.107Z,15.80
2019-06-08T15:09:52.626Z,16.30
2019-06-08T15:12:28.581Z,14.63
2019-06-08T15:15:02.862Z,17.23
2019-06-08T15:17:37.939Z,21.10
2019-06-08T15:20:12.068Z,20.12
2019-06-08T15:25:27.400Z,23.32
2019-06-08T15:28:02.095Z,19.70
2019-06-08T15:30:38.090Z,21.60
2019-06-08T15:33:11.373Z,20.82
2019-06-08T15:35:47.543Z,20.75
2019-06-08T15:38:22.422Z,21.17
2019-06-08T15:40:57.670Z,21.62
2019-06-08T15:43:36.307Z,19.82
2019-06-08T15:46:08.467Z,21.97
2019-06-08T15:48:43.363Z,19.70
2019-06-08T15:51:17.275Z,18.55
2019-06-08T15:53:50.978Z,19.95
2019-06-08T15:56:40.813Z,20.88
2019-06-08T15:59:00.472Z,22.15
2019-06-08T16:01:34.694Z,21.60
2019-06-08T16:04:08.765Z,23.35
2019-06-08T16:06:43.473Z,22.40
2019-06-08T16:09:17.430Z,24.60
2019-06-08T16:11:51.389Z,22.77
2019-06-08T16:14:25.079Z,27.42
2019-06-08T16:16:58.954Z,23.25
2019-06-08T16:19:33.731Z,25.10
2019-06-08T16:22:07.734Z,23.87
2019-06-08T16:24:41.483Z,26.60
2019-06-08T16:27:15.321Z,25.72
2019-06-08T16:29:50.141Z,25.50
2019-06-08T16:32:23.827Z,20.50
2019-06-08T16:34:58.056Z,21.40
2019-06-08T16:37:32.035Z,18.27
2019-06-08T16:40:07.999Z,18.45
2019-06-08T16:42:41.855Z,20.60
2019-06-08T16:45:19.163Z,24.82
2019-06-08T16:47:53.047Z,23.02
2019-06-08T16:50:28.000Z,28.57
2019-06-08T16:53:01.873Z,27.42
2019-06-08T16:55:36.147Z,21.00
2019-06-08T16:58:10.119Z,23.07
2019-06-08T17:00:44.053Z,18.42
2019-06-08T17:03:17.880Z,18.70
2019-06-08T17:05:51.638Z,18.75
2019-06-08T17:08:25.584Z,16.27
2019-06-08T17:10:59.642Z,22.17
2019-06-08T17:13:34.062Z,17.10
2019-06-08T17:16:08.093Z,11.68
2019-06-08T17:18:41.966Z,15.30
2019-06-08T17:21:15.811Z,12.35
2019-06-08T17:23:49.674Z,18.57
2019-06-08T17:26:23.498Z,9.63
2019-06-08T17:28:57.433Z,15.03
2019-06-08T17:31:31.390Z,8.75
2019-06-08T17:34:05.058Z,12.95
2019-06-08T17:36:40.619Z,12.23
2019-06-08T17:39:14.573Z,10.38
2019-06-08T17:41:48.345Z,13.13
2019-06-08T17:44:22.035Z,12.93
2019-06-08T17:46:55.839Z,9.28
2019-06-08T17:49:29.723Z,11.28
2019-06-08T17:52:03.692Z,9.40
2019-06-08T17:54:37.530Z,11.93
2019-06-08T17:57:11.299Z,13.75
2019-06-08T17:59:45.478Z,15.13
2019-06-08T18:02:27.397Z,13.48
2019-06-08T18:04:54.774Z,12.85
2019-06-08T18:07:28.573Z,10.00
2019-06-08T18:10:03.054Z,12.50
2019-06-08T18:12:41.067Z,11.40
2019-06-08T18:15:17.442Z,13.60
2019-06-08T18:17:50.893Z,10.45
2019-06-08T18:20:24.770Z,14.53
2019-06-08T18:22:58.518Z,9.93
2019-06-08T18:25:32.214Z,13.15
2019-06-08T18:28:11.029Z,12.50
2019-06-08T18:30:43.438Z,14.90
2019-06-08T18:33:18.441Z,24.32
2019-06-08T18:35:52.325Z,27.00
2019-06-08T18:38:27.375Z,27.13
2019-06-08T18:41:01.155Z,14.70
2019-06-08T18:43:41.550Z,19.67
2019-06-08T18:46:18.138Z,16.35
2019-06-08T18:48:53.240Z,12.05
2019-06-08T18:51:28.078Z,14.75
2019-06-08T18:54:11.757Z,23.15
2019-06-08T18:56:41.657Z,13.85
2019-06-08T18:59:14.504Z,13.90
2019-06-08T19:01:50.984Z,20.52
2019-06-08T19:04:27.627Z,19.62
2019-06-08T19:07:03.170Z,17.80
2019-06-08T19:09:40.872Z,11.33
2019-06-08T19:12:19.555Z,16.45
2019-06-08T19:14:53.576Z,9.58
2019-06-08T19:17:28.459Z,17.00
2019-06-08T19:20:03.333Z,12.55
2019-06-08T19:22:41.666Z,12.47
2019-06-08T19:25:13.383Z,10.65
2019-06-08T19:27:52.954Z,13.13
2019-06-08T19:30:24.877Z,15.98
2019-06-08T19:32:58.620Z,16.75
2019-06-08T19:35:34.728Z,14.70
2019-06-08T19:38:08.775Z,14.03
2019-06-08T19:40:42.728Z,18.15
2019-06-08T19:43:18.290Z,17.65
2019-06-08T19:45:52.345Z,13.32
2019-06-08T19:48:31.102Z,17.85
2019-06-08T19:51:03.047Z,16.23
2019-06-08T19:53:38.429Z,16.45
2019-06-08T19:56:12.210Z,15.38
2019-06-08T19:58:58.092Z,14.25
2019-06-08T20:01:21.161Z,9.65
2019-06-08T20:03:54.909Z,11.08
2019-06-08T20:06:28.785Z,9.10
2019-06-08T20:09:02.661Z,9.78
2019-06-08T20:11:43.255Z,8.20
2019-06-08T20:14:14.802Z,13.20
2019-06-08T20:16:50.775Z,8.80
2019-06-08T20:19:24.366Z,6.92
2019-06-08T20:21:58.450Z,6.70
2019-06-08T20:24:33.029Z,7.85
2019-06-08T20:27:10.281Z,7.20
2019-06-08T20:29:43.959Z,10.50
2019-06-08T20:32:18.132Z,8.63
2019-06-08T20:34:53.860Z,9.63
2019-06-08T20:37:29.116Z,7.87
2019-06-08T20:40:11.147Z,7.25
2019-06-08T20:42:39.123Z,5.97
2019-06-08T20:45:13.108Z,8.05
2019-06-08T20:47:49.451Z,9.03
2019-06-08T20:50:22.365Z,8.08
2019-06-08T20:52:57.698Z,8.53
2019-06-08T20:55:31.520Z,7.05
2019-06-08T20:58:05.360Z,8.68
2019-06-08T21:00:39.153Z,5.80
2019-06-08T21:03:13.776Z,6.45
2019-06-08T21:05:48.521Z,6.85
2019-06-08T21:08:28.047Z,7.17
2019-06-08T21:11:01.225Z,5.58
2019-06-08T21:13:37.354Z,9.78
2019-06-08T21:16:10.319Z,8.20
2019-06-08T21:18:44.684Z,5.35
2019-06-08T21:21:18.575Z,5.55
2019-06-08T21:23:55.543Z,9.90
2019-06-08T21:26:27.886Z,7.75
2019-06-08T21:29:01.727Z,6.05
2019-06-08T21:31:37.706Z,5.35
2019-06-08T21:34:11.625Z,7.33
2019-06-08T21:36:46.480Z,10.90
2019-06-08T21:39:21.883Z,4.97
2019-06-08T21:42:01.004Z,7.35
2019-06-08T21:44:31.158Z,7.72
2019-06-08T21:47:07.696Z,7.78
2019-06-08T21:49:40.714Z,6.03
2019-06-08T21:52:14.403Z,7.58
2019-06-08T21:54:49.359Z,8.43
2019-06-08T21:57:23.562Z,8.60
2019-06-08T22:00:13.892Z,6.80
2019-06-08T22:02:32.852Z,4.85
2019-06-08T22:05:10.486Z,7.30
2019-06-08T22:07:47.165Z,7.95
2019-06-08T22:10:21.071Z,6.70
2019-06-08T22:12:57.293Z,9.38
2019-06-08T22:15:33.217Z,7.17
2019-06-08T22:18:08.006Z,9.40
2019-06-08T22:20:47.841Z,8.23
2019-06-08T22:23:21.241Z,6.78
2019-06-08T22:25:56.035Z,8.40
2019-06-08T22:28:30.573Z,7.62
2019-06-08T22:31:04.392Z,6.20
2019-06-08T22:33:38.194Z,6.65
2019-06-08T22:36:14.844Z,7.30
2019-06-08T22:38:48.625Z,10.55
2019-06-08T22:41:22.433Z,6.25
2019-06-08T22:43:59.058Z,6.20
2019-06-08T22:46:33.243Z,7.70
2019-06-08T22:49:08.075Z,7.53
2019-06-08T22:51:42.180Z,6.87
2019-06-08T22:54:17.037Z,8.93
2019-06-08T22:56:50.989Z,6.83
2019-06-08T22:59:24.790Z,7.72
2019-06-08T23:02:02.405Z,8.60
2019-06-08T23:04:33.921Z,8.35
2019-06-08T23:07:17.737Z,6.95
2019-06-08T23:09:44.924Z,6.33
2019-06-08T23:12:18.706Z,7.55
2019-06-08T23:14:52.432Z,7.37
2019-06-08T23:17:28.052Z,8.95
2019-06-08T23:20:08.363Z,8.95
2019-06-08T23:22:58.322Z,8.95
2019-06-08T23:25:22.334Z,8.50
2019-06-08T23:27:56.298Z,20.40
2019-06-08T23:30:31.893Z,6.85
2019-06-08T23:33:10.412Z,10.10
2019-06-08T23:36:20.738Z,8.68
2019-06-08T23:38:27.906Z,7.08
2019-06-08T23:41:02.258Z,8.83
2019-06-08T23:43:38.460Z,9.28
2019-06-08T23:46:12.365Z,9.70
2019-06-08T23:48:49.260Z,5.10
2019-06-08T23:51:22.990Z,10.43
2019-06-08T23:53:59.699Z,10.03
2019-06-08T23:56:32.142Z,8.95
2019-06-08T23:59:07.207Z,5.47
